sensor_id;sensor_type;location;lat;lon;timestamp;temperature;humidity
62464;SHT31;48512;48.552;9.380;2022-08-01T00:01:36;19.87;65.72
62464;SHT31;48512;48.552;9.380;2022-08-01T00:04:01;19.90;65.60
62464;SHT31;48512;48.552;9.380;2022-08-01T00:06:27;19.87;65.67
62464;SHT31;48512;48.552;9.380;2022-08-01T00:08:52;19.78;65.96
62464;SHT31;48512;48.552;9.380;2022-08-01T00:11:18;19.62;66.49
62464;SHT31;48512;48.552;9.380;2022-08-01T00:13:43;19.57;66.67
62464;SHT31;48512;48.552;9.380;2022-08-01T00:16:08;19.65;66.42
62464;SHT31;48512;48.552;9.380;2022-08-01T00:18:34;19.58;66.43
62464;SHT31;48512;48.552;9.380;2022-08-01T00:21:01;19.57;66.36
62464;SHT31;48512;48.552;9.380;2022-08-01T00:23:26;19.61;66.33
62464;SHT31;48512;48.552;9.380;2022-08-01T00:25:52;19.55;66.53
62464;SHT31;48512;48.552;9.380;2022-08-01T00:28:17;19.35;66.75
62464;SHT31;48512;48.552;9.380;2022-08-01T00:30:43;19.34;66.90
62464;SHT31;48512;48.552;9.380;2022-08-01T00:33:08;19.42;66.65
62464;SHT31;48512;48.552;9.380;2022-08-01T00:35:33;19.35;66.68
62464;SHT31;48512;48.552;9.380;2022-08-01T00:37:59;19.34;66.67
62464;SHT31;48512;48.552;9.380;2022-08-01T00:40:24;19.25;67.01
62464;SHT31;48512;48.552;9.380;2022-08-01T00:42:50;19.28;66.98
62464;SHT31;48512;48.552;9.380;2022-08-01T00:45:15;19.14;67.37
62464;SHT31;48512;48.552;9.380;2022-08-01T00:47:41;19.14;67.47
62464;SHT31;48512;48.552;9.380;2022-08-01T00:50:06;19.08;67.95
62464;SHT31;48512;48.552;9.380;2022-08-01T00:52:33;19.18;67.49
62464;SHT31;48512;48.552;9.380;2022-08-01T00:54:59;19.21;67.41
62464;SHT31;48512;48.552;9.380;2022-08-01T00:57:25;19.11;67.67
62464;SHT31;48512;48.552;9.380;2022-08-01T00:59:52;19.04;67.72
62464;SHT31;48512;48.552;9.380;2022-08-01T01:02:18;19.00;67.67
62464;SHT31;48512;48.552;9.380;2022-08-01T01:04:44;19.02;68.08
62464;SHT31;48512;48.552;9.380;2022-08-01T01:15:11;18.82;68.79
62464;SHT31;48512;48.552;9.380;2022-08-01T01:17:52;18.75;69.07
62464;SHT31;48512;48.552;9.380;2022-08-01T01:20:21;18.70;69.23
62464;SHT31;48512;48.552;9.380;2022-08-01T01:31:16;18.66;69.29
62464;SHT31;48512;48.552;9.380;2022-08-01T01:33:45;18.66;69.43
62464;SHT31;48512;48.552;9.380;2022-08-01T01:36:12;18.59;69.94
62464;SHT31;48512;48.552;9.380;2022-08-01T01:38:43;18.56;69.87
62464;SHT31;48512;48.552;9.380;2022-08-01T01:41:14;18.67;69.37
62464;SHT31;48512;48.552;9.380;2022-08-01T01:43:41;18.56;69.45
62464;SHT31;48512;48.552;9.380;2022-08-01T01:46:09;18.49;69.95
62464;SHT31;48512;48.552;9.380;2022-08-01T01:48:36;18.52;70.04
62464;SHT31;48512;48.552;9.380;2022-08-01T01:51:03;18.53;69.92
62464;SHT31;48512;48.552;9.380;2022-08-01T01:53:31;18.53;69.88
62464;SHT31;48512;48.552;9.380;2022-08-01T01:55:58;18.60;69.57
62464;SHT31;48512;48.552;9.380;2022-08-01T01:58:27;18.45;69.81
62464;SHT31;48512;48.552;9.380;2022-08-01T02:00:55;18.39;70.23
62464;SHT31;48512;48.552;9.380;2022-08-01T02:03:22;18.32;70.62
62464;SHT31;48512;48.552;9.380;2022-08-01T02:05:51;18.37;70.37
62464;SHT31;48512;48.552;9.380;2022-08-01T02:08:17;18.37;70.37
62464;SHT31;48512;48.552;9.380;2022-08-01T02:10:44;18.35;70.75
62464;SHT31;48512;48.552;9.380;2022-08-01T02:13:34;18.56;70.15
62464;SHT31;48512;48.552;9.380;2022-08-01T02:16:02;18.39;70.42
62464;SHT31;48512;48.552;9.380;2022-08-01T02:18:28;18.48;69.94
62464;SHT31;48512;48.552;9.380;2022-08-01T02:20:54;18.37;70.30
62464;SHT31;48512;48.552;9.380;2022-08-01T02:23:22;18.34;70.55
62464;SHT31;48512;48.552;9.380;2022-08-01T02:25:50;18.22;71.06
62464;SHT31;48512;48.552;9.380;2022-08-01T02:28:21;18.17;71.68
62464;SHT31;48512;48.552;9.380;2022-08-01T02:30:51;18.32;70.95
62464;SHT31;48512;48.552;9.380;2022-08-01T02:33:18;18.24;71.23
62464;SHT31;48512;48.552;9.380;2022-08-01T02:35:49;18.18;71.52
62464;SHT31;48512;48.552;9.380;2022-08-01T02:38:16;18.44;70.57
62464;SHT31;48512;48.552;9.380;2022-08-01T02:40:45;18.37;70.81
62464;SHT31;48512;48.552;9.380;2022-08-01T02:43:12;18.17;71.52
62464;SHT31;48512;48.552;9.380;2022-08-01T02:45:42;18.04;72.09
62464;SHT31;48512;48.552;9.380;2022-08-01T02:48:11;18.10;71.70
62464;SHT31;48512;48.552;9.380;2022-08-01T02:50:38;18.18;71.32
62464;SHT31;48512;48.552;9.380;2022-08-01T02:53:05;18.15;71.58
62464;SHT31;48512;48.552;9.380;2022-08-01T02:55:32;18.02;72.01
62464;SHT31;48512;48.552;9.380;2022-08-01T02:57:59;18.01;72.58
62464;SHT31;48512;48.552;9.380;2022-08-01T03:00:26;18.10;71.57
62464;SHT31;48512;48.552;9.380;2022-08-01T03:02:53;18.01;71.91
62464;SHT31;48512;48.552;9.380;2022-08-01T03:05:20;17.98;72.47
62464;SHT31;48512;48.552;9.380;2022-08-01T03:07:47;17.90;73.10
62464;SHT31;48512;48.552;9.380;2022-08-01T03:10:14;18.18;71.88
62464;SHT31;48512;48.552;9.380;2022-08-01T03:12:41;18.14;72.07
62464;SHT31;48512;48.552;9.380;2022-08-01T03:15:09;18.08;72.32
62464;SHT31;48512;48.552;9.380;2022-08-01T03:17:36;18.05;72.18
62464;SHT31;48512;48.552;9.380;2022-08-01T03:20:04;18.08;72.47
62464;SHT31;48512;48.552;9.380;2022-08-01T03:22:31;18.00;72.75
62464;SHT31;48512;48.552;9.380;2022-08-01T03:24:58;18.02;72.83
62464;SHT31;48512;48.552;9.380;2022-08-01T03:27:25;17.96;73.14
62464;SHT31;48512;48.552;9.380;2022-08-01T03:29:51;18.07;73.07
62464;SHT31;48512;48.552;9.380;2022-08-01T03:32:21;18.00;73.11
62464;SHT31;48512;48.552;9.380;2022-08-01T03:34:48;18.11;72.80
62464;SHT31;48512;48.552;9.380;2022-08-01T03:37:35;17.93;73.53
62464;SHT31;48512;48.552;9.380;2022-08-01T03:40:06;17.97;73.50
62464;SHT31;48512;48.552;9.380;2022-08-01T03:42:36;17.83;74.25
62464;SHT31;48512;48.552;9.380;2022-08-01T03:45:05;17.90;73.97
62464;SHT31;48512;48.552;9.380;2022-08-01T03:47:32;17.81;74.60
62464;SHT31;48512;48.552;9.380;2022-08-01T03:50:00;17.77;74.60
62464;SHT31;48512;48.552;9.380;2022-08-01T03:52:27;17.67;75.07
62464;SHT31;48512;48.552;9.380;2022-08-01T03:54:55;17.66;75.35
62464;SHT31;48512;48.552;9.380;2022-08-01T03:57:23;17.54;75.72
62464;SHT31;48512;48.552;9.380;2022-08-01T03:59:49;17.50;75.88
62464;SHT31;48512;48.552;9.380;2022-08-01T04:02:15;17.53;75.84
62464;SHT31;48512;48.552;9.380;2022-08-01T04:04:42;17.49;76.09
62464;SHT31;48512;48.552;9.380;2022-08-01T04:07:27;17.47;76.28
62464;SHT31;48512;48.552;9.380;2022-08-01T04:09:52;17.49;76.09
62464;SHT31;48512;48.552;9.380;2022-08-01T04:12:18;17.39;76.53
62464;SHT31;48512;48.552;9.380;2022-08-01T04:14:43;17.45;76.44
62464;SHT31;48512;48.552;9.380;2022-08-01T04:17:09;17.70;75.55
62464;SHT31;48512;48.552;9.380;2022-08-01T04:19:34;17.74;75.50
62464;SHT31;48512;48.552;9.380;2022-08-01T04:22:00;17.81;75.22
62464;SHT31;48512;48.552;9.380;2022-08-01T04:24:29;17.77;75.29
62464;SHT31;48512;48.552;9.380;2022-08-01T04:26:57;17.80;75.16
62464;SHT31;48512;48.552;9.380;2022-08-01T04:29:24;17.86;75.11
62464;SHT31;48512;48.552;9.380;2022-08-01T04:31:53;17.79;75.46
62464;SHT31;48512;48.552;9.380;2022-08-01T04:34:21;17.70;75.87
62464;SHT31;48512;48.552;9.380;2022-08-01T04:36:48;17.65;76.23
62464;SHT31;48512;48.552;9.380;2022-08-01T04:39:15;17.56;76.60
62464;SHT31;48512;48.552;9.380;2022-08-01T04:41:42;17.53;76.78
62464;SHT31;48512;48.552;9.380;2022-08-01T04:44:07;17.52;77.09
62464;SHT31;48512;48.552;9.380;2022-08-01T04:46:33;17.50;77.19
62464;SHT31;48512;48.552;9.380;2022-08-01T04:49:00;17.52;77.15
62464;SHT31;48512;48.552;9.380;2022-08-01T04:51:26;17.53;76.93
62464;SHT31;48512;48.552;9.380;2022-08-01T04:53:52;17.56;76.98
62464;SHT31;48512;48.552;9.380;2022-08-01T04:56:19;17.63;76.94
62464;SHT31;48512;48.552;9.380;2022-08-01T04:58:46;17.69;76.61
62464;SHT31;48512;48.552;9.380;2022-08-01T05:01:11;17.63;76.99
62464;SHT31;48512;48.552;9.380;2022-08-01T05:03:37;17.63;77.23
62464;SHT31;48512;48.552;9.380;2022-08-01T05:06:03;17.62;77.38
62464;SHT31;48512;48.552;9.380;2022-08-01T05:08:28;17.60;77.32
62464;SHT31;48512;48.552;9.380;2022-08-01T05:10:54;17.66;77.25
62464;SHT31;48512;48.552;9.380;2022-08-01T05:13:19;17.76;76.92
62464;SHT31;48512;48.552;9.380;2022-08-01T05:15:45;17.77;77.16
62464;SHT31;48512;48.552;9.380;2022-08-01T05:18:10;17.74;76.71
62464;SHT31;48512;48.552;9.380;2022-08-01T05:20:36;17.76;76.76
62464;SHT31;48512;48.552;9.380;2022-08-01T05:23:05;17.84;76.81
62464;SHT31;48512;48.552;9.380;2022-08-01T05:25:31;17.81;76.89
62464;SHT31;48512;48.552;9.380;2022-08-01T05:27:56;17.91;76.73
62464;SHT31;48512;48.552;9.380;2022-08-01T05:30:21;18.42;76.18
62464;SHT31;48512;48.552;9.380;2022-08-01T05:32:47;19.10;74.15
62464;SHT31;48512;48.552;9.380;2022-08-01T05:35:12;19.31;72.08
62464;SHT31;48512;48.552;9.380;2022-08-01T05:37:38;19.48;72.20
62464;SHT31;48512;48.552;9.380;2022-08-01T05:40:04;19.63;71.11
62464;SHT31;48512;48.552;9.380;2022-08-01T05:42:30;19.79;70.17
62464;SHT31;48512;48.552;9.380;2022-08-01T05:44:55;20.01;69.88
62464;SHT31;48512;48.552;9.380;2022-08-01T05:47:20;20.23;69.11
62464;SHT31;48512;48.552;9.380;2022-08-01T05:49:46;20.28;67.41
62464;SHT31;48512;48.552;9.380;2022-08-01T05:52:11;20.33;67.75
62464;SHT31;48512;48.552;9.380;2022-08-01T05:54:37;20.20;68.97
62464;SHT31;48512;48.552;9.380;2022-08-01T05:57:03;20.12;69.36
62464;SHT31;48512;48.552;9.380;2022-08-01T05:59:29;20.13;69.23
62464;SHT31;48512;48.552;9.380;2022-08-01T06:01:55;20.09;69.31
62464;SHT31;48512;48.552;9.380;2022-08-01T06:04:20;20.06;70.04
62464;SHT31;48512;48.552;9.380;2022-08-01T06:06:46;20.09;69.62
62464;SHT31;48512;48.552;9.380;2022-08-01T06:09:12;20.17;69.75
62464;SHT31;48512;48.552;9.380;2022-08-01T06:11:37;20.28;68.63
62464;SHT31;48512;48.552;9.380;2022-08-01T06:14:03;20.65;66.93
62464;SHT31;48512;48.552;9.380;2022-08-01T06:16:29;20.64;67.34
62464;SHT31;48512;48.552;9.380;2022-08-01T06:18:54;20.72;67.22
62464;SHT31;48512;48.552;9.380;2022-08-01T06:21:20;20.82;66.91
62464;SHT31;48512;48.552;9.380;2022-08-01T06:23:45;20.88;66.80
62464;SHT31;48512;48.552;9.380;2022-08-01T06:26:11;20.93;67.47
62464;SHT31;48512;48.552;9.380;2022-08-01T06:28:37;21.05;68.09
62464;SHT31;48512;48.552;9.380;2022-08-01T06:31:03;21.10;67.04
62464;SHT31;48512;48.552;9.380;2022-08-01T06:33:29;21.20;67.37
62464;SHT31;48512;48.552;9.380;2022-08-01T06:35:54;21.47;66.11
62464;SHT31;48512;48.552;9.380;2022-08-01T06:38:20;21.41;65.77
62464;SHT31;48512;48.552;9.380;2022-08-01T06:40:46;21.53;65.58
62464;SHT31;48512;48.552;9.380;2022-08-01T06:43:11;21.68;65.12
62464;SHT31;48512;48.552;9.380;2022-08-01T06:45:38;21.79;64.01
62464;SHT31;48512;48.552;9.380;2022-08-01T06:48:03;21.84;63.65
62464;SHT31;48512;48.552;9.380;2022-08-01T06:50:30;21.88;64.08
62464;SHT31;48512;48.552;9.380;2022-08-01T06:52:55;21.99;62.61
62464;SHT31;48512;48.552;9.380;2022-08-01T06:55:21;21.91;63.11
62464;SHT31;48512;48.552;9.380;2022-08-01T06:57:51;22.13;62.88
62464;SHT31;48512;48.552;9.380;2022-08-01T07:00:19;22.15;62.49
62464;SHT31;48512;48.552;9.380;2022-08-01T07:02:48;22.06;63.21
62464;SHT31;48512;48.552;9.380;2022-08-01T07:05:14;22.28;62.44
62464;SHT31;48512;48.552;9.380;2022-08-01T07:07:40;22.32;62.43
62464;SHT31;48512;48.552;9.380;2022-08-01T07:10:06;22.29;62.08
62464;SHT31;48512;48.552;9.380;2022-08-01T07:12:33;22.26;62.85
62464;SHT31;48512;48.552;9.380;2022-08-01T07:15:02;22.37;61.91
62464;SHT31;48512;48.552;9.380;2022-08-01T07:17:28;22.46;61.85
62464;SHT31;48512;48.552;9.380;2022-08-01T07:19:53;22.39;62.50
62464;SHT31;48512;48.552;9.380;2022-08-01T07:22:19;22.30;62.93
62464;SHT31;48512;48.552;9.380;2022-08-01T07:24:45;22.46;62.48
62464;SHT31;48512;48.552;9.380;2022-08-01T07:27:11;22.53;62.35
62464;SHT31;48512;48.552;9.380;2022-08-01T07:29:36;22.56;62.34
62464;SHT31;48512;48.552;9.380;2022-08-01T07:32:02;22.53;62.74
62464;SHT31;48512;48.552;9.380;2022-08-01T07:34:28;22.64;62.52
62464;SHT31;48512;48.552;9.380;2022-08-01T07:36:53;22.65;61.96
62464;SHT31;48512;48.552;9.380;2022-08-01T07:39:19;22.84;60.90
62464;SHT31;48512;48.552;9.380;2022-08-01T07:41:45;22.77;61.52
62464;SHT31;48512;48.552;9.380;2022-08-01T07:44:10;22.83;61.55
62464;SHT31;48512;48.552;9.380;2022-08-01T07:46:36;22.90;61.84
62464;SHT31;48512;48.552;9.380;2022-08-01T07:49:01;22.98;61.27
62464;SHT31;48512;48.552;9.380;2022-08-01T07:51:27;22.98;61.37
62464;SHT31;48512;48.552;9.380;2022-08-01T07:53:52;23.05;61.39
62464;SHT31;48512;48.552;9.380;2022-08-01T07:56:18;23.12;60.72
62464;SHT31;48512;48.552;9.380;2022-08-01T07:58:44;23.21;60.12
62464;SHT31;48512;48.552;9.380;2022-08-01T08:01:10;23.29;59.87
62464;SHT31;48512;48.552;9.380;2022-08-01T08:03:35;23.23;60.30
62464;SHT31;48512;48.552;9.380;2022-08-01T08:06:01;23.30;59.65
62464;SHT31;48512;48.552;9.380;2022-08-01T08:08:26;23.29;59.86
62464;SHT31;48512;48.552;9.380;2022-08-01T08:10:52;23.41;60.06
62464;SHT31;48512;48.552;9.380;2022-08-01T08:13:18;23.35;58.41
62464;SHT31;48512;48.552;9.380;2022-08-01T08:15:43;23.55;58.56
62464;SHT31;48512;48.552;9.380;2022-08-01T08:18:09;23.53;59.68
62464;SHT31;48512;48.552;9.380;2022-08-01T08:20:34;23.63;58.89
62464;SHT31;48512;48.552;9.380;2022-08-01T08:23:00;23.60;58.29
62464;SHT31;48512;48.552;9.380;2022-08-01T08:25:26;23.71;58.37
62464;SHT31;48512;48.552;9.380;2022-08-01T08:27:52;23.86;60.22
62464;SHT31;48512;48.552;9.380;2022-08-01T08:30:18;23.84;58.43
62464;SHT31;48512;48.552;9.380;2022-08-01T08:32:44;24.00;58.20
62464;SHT31;48512;48.552;9.380;2022-08-01T08:35:09;24.08;58.38
62464;SHT31;48512;48.552;9.380;2022-08-01T08:37:35;24.10;58.31
62464;SHT31;48512;48.552;9.380;2022-08-01T08:40:03;24.18;57.83
62464;SHT31;48512;48.552;9.380;2022-08-01T08:42:28;24.29;57.43
62464;SHT31;48512;48.552;9.380;2022-08-01T08:44:54;24.44;57.79
62464;SHT31;48512;48.552;9.380;2022-08-01T08:47:21;24.53;57.62
62464;SHT31;48512;48.552;9.380;2022-08-01T08:49:48;24.63;56.94
62464;SHT31;48512;48.552;9.380;2022-08-01T08:52:14;24.76;55.70
62464;SHT31;48512;48.552;9.380;2022-08-01T08:54:41;24.63;57.04
62464;SHT31;48512;48.552;9.380;2022-08-01T08:57:08;24.86;58.73
62464;SHT31;48512;48.552;9.380;2022-08-01T08:59:36;24.79;57.24
62464;SHT31;48512;48.552;9.380;2022-08-01T09:02:02;24.97;56.59
62464;SHT31;48512;48.552;9.380;2022-08-01T09:04:30;25.33;55.49
62464;SHT31;48512;48.552;9.380;2022-08-01T09:06:55;25.39;55.72
62464;SHT31;48512;48.552;9.380;2022-08-01T09:09:21;25.62;54.95
62464;SHT31;48512;48.552;9.380;2022-08-01T09:11:46;25.85;54.98
62464;SHT31;48512;48.552;9.380;2022-08-01T09:14:17;26.09;54.36
62464;SHT31;48512;48.552;9.380;2022-08-01T09:17:16;26.47;53.63
62464;SHT31;48512;48.552;9.380;2022-08-01T09:19:43;26.67;53.47
62464;SHT31;48512;48.552;9.380;2022-08-01T09:22:14;26.61;52.56
62464;SHT31;48512;48.552;9.380;2022-08-01T09:24:57;26.75;52.62
62464;SHT31;48512;48.552;9.380;2022-08-01T09:27:22;26.79;51.44
62464;SHT31;48512;48.552;9.380;2022-08-01T09:29:51;26.71;51.62
62464;SHT31;48512;48.552;9.380;2022-08-01T09:32:17;26.81;51.30
62464;SHT31;48512;48.552;9.380;2022-08-01T09:34:43;27.02;51.33
62464;SHT31;48512;48.552;9.380;2022-08-01T09:37:09;27.33;49.69
62464;SHT31;48512;48.552;9.380;2022-08-01T09:39:36;27.53;49.85
62464;SHT31;48512;48.552;9.380;2022-08-01T09:42:26;27.94;50.37
62464;SHT31;48512;48.552;9.380;2022-08-01T09:44:52;28.06;49.78
62464;SHT31;48512;48.552;9.380;2022-08-01T09:47:18;27.88;50.58
62464;SHT31;48512;48.552;9.380;2022-08-01T09:49:57;28.00;49.58
62464;SHT31;48512;48.552;9.380;2022-08-01T09:52:26;28.50;49.24
62464;SHT31;48512;48.552;9.380;2022-08-01T09:55:00;27.87;48.51
62464;SHT31;48512;48.552;9.380;2022-08-01T09:57:26;28.23;48.49
62464;SHT31;48512;48.552;9.380;2022-08-01T09:59:54;28.05;49.57
62464;SHT31;48512;48.552;9.380;2022-08-01T10:04:56;28.02;49.40
62464;SHT31;48512;48.552;9.380;2022-08-01T10:07:21;28.22;48.84
62464;SHT31;48512;48.552;9.380;2022-08-01T10:09:47;28.28;50.06
62464;SHT31;48512;48.552;9.380;2022-08-01T10:12:18;28.48;49.81
62464;SHT31;48512;48.552;9.380;2022-08-01T10:14:47;28.40;48.88
62464;SHT31;48512;48.552;9.380;2022-08-01T10:17:15;28.63;48.44
62464;SHT31;48512;48.552;9.380;2022-08-01T10:19:42;28.61;48.07
62464;SHT31;48512;48.552;9.380;2022-08-01T10:22:09;28.53;47.42
62464;SHT31;48512;48.552;9.380;2022-08-01T10:24:39;28.48;47.83
62464;SHT31;48512;48.552;9.380;2022-08-01T10:27:07;28.49;48.20
62464;SHT31;48512;48.552;9.380;2022-08-01T10:29:36;29.10;46.68
62464;SHT31;48512;48.552;9.380;2022-08-01T10:32:05;29.11;45.62
62464;SHT31;48512;48.552;9.380;2022-08-01T10:34:31;29.53;46.61
62464;SHT31;48512;48.552;9.380;2022-08-01T10:36:58;29.69;46.41
62464;SHT31;48512;48.552;9.380;2022-08-01T10:39:25;29.55;45.82
62464;SHT31;48512;48.552;9.380;2022-08-01T10:41:53;29.97;44.25
62464;SHT31;48512;48.552;9.380;2022-08-01T10:44:19;30.25;44.73
62464;SHT31;48512;48.552;9.380;2022-08-01T10:46:49;30.25;44.63
62464;SHT31;48512;48.552;9.380;2022-08-01T10:49:17;30.42;43.97
62464;SHT31;48512;48.552;9.380;2022-08-01T10:51:43;29.69;45.15
62464;SHT31;48512;48.552;9.380;2022-08-01T10:54:10;29.56;44.15
62464;SHT31;48512;48.552;9.380;2022-08-01T10:56:54;29.76;44.62
62464;SHT31;48512;48.552;9.380;2022-08-01T10:59:26;29.87;44.06
62464;SHT31;48512;48.552;9.380;2022-08-01T11:02:00;30.07;44.34
62464;SHT31;48512;48.552;9.380;2022-08-01T11:04:54;30.87;43.93
62464;SHT31;48512;48.552;9.380;2022-08-01T11:07:22;30.97;42.83
62464;SHT31;48512;48.552;9.380;2022-08-01T11:10:03;31.16;43.52
62464;SHT31;48512;48.552;9.380;2022-08-01T11:12:39;30.76;43.84
62464;SHT31;48512;48.552;9.380;2022-08-01T11:20:11;29.74;44.08
62464;SHT31;48512;48.552;9.380;2022-08-01T11:33:09;29.14;45.47
62464;SHT31;48512;48.552;9.380;2022-08-01T11:35:36;29.00;46.20
62464;SHT31;48512;48.552;9.380;2022-08-01T11:38:24;28.84;47.11
62464;SHT31;48512;48.552;9.380;2022-08-01T11:41:15;29.03;47.44
62464;SHT31;48512;48.552;9.380;2022-08-01T11:46:57;28.61;50.13
62464;SHT31;48512;48.552;9.380;2022-08-01T11:55:25;28.31;52.76
62464;SHT31;48512;48.552;9.380;2022-08-01T11:57:32;28.39;52.60
62464;SHT31;48512;48.552;9.380;2022-08-01T12:02:37;28.28;52.34
62464;SHT31;48512;48.552;9.380;2022-08-01T12:05:08;28.32;53.04
62464;SHT31;48512;48.552;9.380;2022-08-01T12:07:36;28.25;53.51
62464;SHT31;48512;48.552;9.380;2022-08-01T12:10:12;28.00;54.21
62464;SHT31;48512;48.552;9.380;2022-08-01T12:12:46;28.08;54.23
62464;SHT31;48512;48.552;9.380;2022-08-01T12:15:12;27.90;54.50
62464;SHT31;48512;48.552;9.380;2022-08-01T12:17:46;27.92;53.82
62464;SHT31;48512;48.552;9.380;2022-08-01T12:20:15;28.15;52.49
62464;SHT31;48512;48.552;9.380;2022-08-01T12:22:41;28.97;50.37
62464;SHT31;48512;48.552;9.380;2022-08-01T12:25:14;29.63;49.38
62464;SHT31;48512;48.552;9.380;2022-08-01T12:27:41;30.17;48.47
62464;SHT31;48512;48.552;9.380;2022-08-01T12:30:10;31.09;46.31
62464;SHT31;48512;48.552;9.380;2022-08-01T12:32:36;30.37;46.67
62464;SHT31;48512;48.552;9.380;2022-08-01T12:35:16;29.63;46.39
62464;SHT31;48512;48.552;9.380;2022-08-01T12:37:48;29.31;47.32
62464;SHT31;48512;48.552;9.380;2022-08-01T12:40:18;29.32;48.19
62464;SHT31;48512;48.552;9.380;2022-08-01T12:42:55;29.46;46.95
62464;SHT31;48512;48.552;9.380;2022-08-01T12:45:25;29.91;46.73
62464;SHT31;48512;48.552;9.380;2022-08-01T12:47:52;29.69;47.02
62464;SHT31;48512;48.552;9.380;2022-08-01T12:50:22;29.41;47.19
62464;SHT31;48512;48.552;9.380;2022-08-01T12:52:49;29.34;47.60
62464;SHT31;48512;48.552;9.380;2022-08-01T12:55:17;29.38;48.38
62464;SHT31;48512;48.552;9.380;2022-08-01T12:57:45;29.31;48.33
62464;SHT31;48512;48.552;9.380;2022-08-01T13:02:44;31.09;46.64
62464;SHT31;48512;48.552;9.380;2022-08-01T13:05:10;31.54;45.06
62464;SHT31;48512;48.552;9.380;2022-08-01T13:07:44;31.29;46.15
62464;SHT31;48512;48.552;9.380;2022-08-01T13:10:10;31.44;44.72
62464;SHT31;48512;48.552;9.380;2022-08-01T13:12:37;31.30;44.59
62464;SHT31;48512;48.552;9.380;2022-08-01T13:15:20;31.52;46.01
62464;SHT31;48512;48.552;9.380;2022-08-01T13:17:45;31.88;43.37
62464;SHT31;48512;48.552;9.380;2022-08-01T13:20:21;31.57;44.08
62464;SHT31;48512;48.552;9.380;2022-08-01T13:22:47;31.79;43.65
62464;SHT31;48512;48.552;9.380;2022-08-01T13:25:13;31.16;43.72
62464;SHT31;48512;48.552;9.380;2022-08-01T13:27:39;31.79;42.81
62464;SHT31;48512;48.552;9.380;2022-08-01T13:30:18;32.32;42.11
62464;SHT31;48512;48.552;9.380;2022-08-01T13:32:59;32.71;40.83
62464;SHT31;48512;48.552;9.380;2022-08-01T13:35:25;32.77;41.19
62464;SHT31;48512;48.552;9.380;2022-08-01T13:37:51;32.75;41.55
62464;SHT31;48512;48.552;9.380;2022-08-01T13:40:25;33.17;40.21
62464;SHT31;48512;48.552;9.380;2022-08-01T13:42:51;33.43;40.28
62464;SHT31;48512;48.552;9.380;2022-08-01T13:45:16;33.42;38.95
62464;SHT31;48512;48.552;9.380;2022-08-01T13:47:42;33.72;38.10
62464;SHT31;48512;48.552;9.380;2022-08-01T13:50:08;33.56;38.87
62464;SHT31;48512;48.552;9.380;2022-08-01T13:52:34;33.63;37.96
62464;SHT31;48512;48.552;9.380;2022-08-01T13:55:00;33.93;38.02
62464;SHT31;48512;48.552;9.380;2022-08-01T13:57:26;33.70;38.58
62464;SHT31;48512;48.552;9.380;2022-08-01T13:59:51;33.53;38.58
62464;SHT31;48512;48.552;9.380;2022-08-01T14:02:17;34.04;39.02
62464;SHT31;48512;48.552;9.380;2022-08-01T14:04:42;34.21;37.72
62464;SHT31;48512;48.552;9.380;2022-08-01T14:07:07;34.44;37.53
62464;SHT31;48512;48.552;9.380;2022-08-01T14:09:33;34.56;37.66
62464;SHT31;48512;48.552;9.380;2022-08-01T14:11:58;34.72;37.58
62464;SHT31;48512;48.552;9.380;2022-08-01T14:14:24;34.34;37.68
62464;SHT31;48512;48.552;9.380;2022-08-01T14:16:49;34.37;37.14
62464;SHT31;48512;48.552;9.380;2022-08-01T14:19:14;34.60;36.62
62464;SHT31;48512;48.552;9.380;2022-08-01T14:21:41;34.48;38.47
62464;SHT31;48512;48.552;9.380;2022-08-01T14:24:07;34.60;36.45
62464;SHT31;48512;48.552;9.380;2022-08-01T14:26:33;34.52;36.19
62464;SHT31;48512;48.552;9.380;2022-08-01T14:28:58;34.55;37.49
62464;SHT31;48512;48.552;9.380;2022-08-01T14:31:24;34.65;37.07
62464;SHT31;48512;48.552;9.380;2022-08-01T14:33:49;34.34;37.39
62464;SHT31;48512;48.552;9.380;2022-08-01T14:36:14;34.21;38.14
62464;SHT31;48512;48.552;9.380;2022-08-01T14:38:40;34.63;38.65
62464;SHT31;48512;48.552;9.380;2022-08-01T14:41:05;34.82;36.07
62464;SHT31;48512;48.552;9.380;2022-08-01T14:43:31;34.75;36.36
62464;SHT31;48512;48.552;9.380;2022-08-01T14:46:00;34.45;37.32
62464;SHT31;48512;48.552;9.380;2022-08-01T14:48:26;34.39;37.50
62464;SHT31;48512;48.552;9.380;2022-08-01T14:50:51;34.01;37.54
62464;SHT31;48512;48.552;9.380;2022-08-01T14:53:17;34.14;37.25
62464;SHT31;48512;48.552;9.380;2022-08-01T14:55:43;32.70;39.78
62464;SHT31;48512;48.552;9.380;2022-08-01T14:58:09;33.01;39.78
62464;SHT31;48512;48.552;9.380;2022-08-01T15:00:34;32.92;39.48
62464;SHT31;48512;48.552;9.380;2022-08-01T15:03:00;32.33;40.22
62464;SHT31;48512;48.552;9.380;2022-08-01T15:05:25;31.90;40.13
62464;SHT31;48512;48.552;9.380;2022-08-01T15:07:50;32.09;40.07
62464;SHT31;48512;48.552;9.380;2022-08-01T15:10:16;32.05;40.02
62464;SHT31;48512;48.552;9.380;2022-08-01T15:12:41;31.82;40.68
62464;SHT31;48512;48.552;9.380;2022-08-01T15:15:07;31.81;41.27
62464;SHT31;48512;48.552;9.380;2022-08-01T15:17:32;31.54;41.65
62464;SHT31;48512;48.552;9.380;2022-08-01T15:20:02;31.33;42.17
62464;SHT31;48512;48.552;9.380;2022-08-01T15:22:28;31.29;42.84
62464;SHT31;48512;48.552;9.380;2022-08-01T15:24:55;31.14;43.37
62464;SHT31;48512;48.552;9.380;2022-08-01T15:27:21;30.90;43.40
62464;SHT31;48512;48.552;9.380;2022-08-01T15:29:48;30.99;44.20
62464;SHT31;48512;48.552;9.380;2022-08-01T15:32:14;30.89;44.98
62464;SHT31;48512;48.552;9.380;2022-08-01T15:34:40;31.00;47.80
62464;SHT31;48512;48.552;9.380;2022-08-01T15:37:06;30.66;49.81
62464;SHT31;48512;48.552;9.380;2022-08-01T15:39:32;30.32;51.38
62464;SHT31;48512;48.552;9.380;2022-08-01T15:42:06;29.73;52.43
62464;SHT31;48512;48.552;9.380;2022-08-01T15:44:32;29.14;63.63
62464;SHT31;48512;48.552;9.380;2022-08-01T15:46:59;28.83;64.49
62464;SHT31;48512;48.552;9.380;2022-08-01T15:49:25;28.56;63.00
62464;SHT31;48512;48.552;9.380;2022-08-01T15:51:50;28.49;62.22
62464;SHT31;48512;48.552;9.380;2022-08-01T15:54:17;27.95;64.97
62464;SHT31;48512;48.552;9.380;2022-08-01T15:56:42;27.87;66.67
62464;SHT31;48512;48.552;9.380;2022-08-01T15:59:08;27.92;64.43
62464;SHT31;48512;48.552;9.380;2022-08-01T16:01:33;28.83;61.00
62464;SHT31;48512;48.552;9.380;2022-08-01T16:03:59;28.73;64.51
62464;SHT31;48512;48.552;9.380;2022-08-01T16:06:24;28.33;55.81
62464;SHT31;48512;48.552;9.380;2022-08-01T16:08:50;27.65;59.39
62464;SHT31;48512;48.552;9.380;2022-08-01T16:11:17;27.35;62.79
62464;SHT31;48512;48.552;9.380;2022-08-01T16:13:42;27.06;64.92
62464;SHT31;48512;48.552;9.380;2022-08-01T16:16:08;26.81;63.25
62464;SHT31;48512;48.552;9.380;2022-08-01T16:18:34;26.33;66.23
62464;SHT31;48512;48.552;9.380;2022-08-01T16:20:59;26.14;68.82